Time;durP1;ratioP1;P1;durP2;ratioP2;P2;SDS_P1;SDS_P2;PMS_P1;PMS_P2;Temp;Humidity;BMP_temperature;BMP_pressure;BME280_temperature;BME280_humidity;BME280_pressure;Samples;Min_cycle;Max_cycle;Signal;HPM_P1;HPM_P2
2022/03/25 00:05:14;;;;;;;108.50;64.20;;;;;;;0.34;55.62;100553.11;431983;1271;160030;-58
2022/03/25 00:15:20;;;;;;;114.70;68.70;;;;;;;0.20;55.93;100551.66;430196;1270;162386;-58
2022/03/25 00:25:26;;;;;;;112.90;63.10;;;;;;;0.05;56.67;100544.85;431825;1271;143018;-58
2022/03/25 00:35:32;;;;;;;104.80;64.50;;;;;;;-0.10;56.93;100537.70;431284;1271;184768;-61
2022/03/25 00:45:38;;;;;;;112.80;67.90;;;;;;;-0.29;57.15;100533.13;430059;1271;142282;-61
2022/03/25 00:55:44;;;;;;;103.00;60.70;;;;;;;-0.37;57.61;100526.96;430952;1270;143254;-59
2022/03/25 01:05:51;;;;;;;106.90;63.80;;;;;;;-0.48;57.98;100518.41;431165;1271;142067;-58
2022/03/25 01:15:56;;;;;;;106.00;63.70;;;;;;;-0.51;58.23;100521.69;430295;1270;142349;-60
2022/03/25 01:26:03;;;;;;;108.20;65.70;;;;;;;-0.52;58.51;100523.23;431416;1270;141769;-59
2022/03/25 01:36:09;;;;;;;83.30;54.20;;;;;;;-0.55;58.71;100522.23;432092;1271;141672;-58
2022/03/25 01:46:15;;;;;;;100.00;59.00;;;;;;;-0.62;59.08;100521.72;430991;1269;143127;-59
2022/03/25 01:56:23;;;;;;;83.70;51.20;;;;;;;-0.65;59.09;100519.67;431183;1270;142288;-59
2022/03/25 02:06:30;;;;;;;90.70;55.30;;;;;;;-0.69;59.20;100524.14;430172;1270;146751;-60
2022/03/25 02:16:40;;;;;;;86.10;53.10;;;;;;;-0.75;59.45;100531.03;431107;1270;141953;-58
2022/03/25 02:26:47;;;;;;;80.30;48.70;;;;;;;-0.88;59.66;100531.75;431239;1270;141574;-59
2022/03/25 02:36:53;;;;;;;89.40;52.50;;;;;;;-1.06;60.00;100534.52;430562;1270;141805;-60
2022/03/25 02:46:58;;;;;;;83.90;54.00;;;;;;;-1.21;60.35;100532.31;431591;1269;143187;-58
2022/03/25 02:57:05;;;;;;;84.40;54.60;;;;;;;-1.31;60.65;100535.05;432185;1270;141905;-58
2022/03/25 03:07:10;;;;;;;;;;;;;;;-1.40;61.00;100530.92;430505;1270;142851;-58
2022/03/25 03:17:16;;;;;;;70.70;47.80;;;;;;;-1.39;61.49;100529.55;430935;1270;129739;-58
2022/03/25 03:27:21;;;;;;;79.20;46.70;;;;;;;-1.30;61.65;100525.94;430429;1270;142439;-59
2022/03/25 03:37:27;;;;;;;78.00;49.20;;;;;;;-1.21;61.54;100529.21;431147;1267;143783;-57
2022/03/25 03:47:33;;;;;;;83.40;48.30;;;;;;;-1.25;61.26;100534.20;431049;1270;146344;-59
2022/03/25 03:57:39;;;;;;;83.70;51.90;;;;;;;-1.43;61.61;100534.71;430349;1269;163727;-58
2022/03/25 04:07:47;;;;;;;88.50;51.00;;;;;;;-1.60;61.81;100535.89;432011;1269;141397;-58
2022/03/25 04:17:53;;;;;;;91.60;52.40;;;;;;;-1.74;62.13;100538.61;431062;1270;141801;-60
2022/03/25 04:28:01;;;;;;;90.00;56.20;;;;;;;-1.80;62.67;100545.30;430757;1270;144222;-57
2022/03/25 04:38:09;;;;;;;81.50;51.30;;;;;;;-1.79;62.93;100545.47;431773;1270;142201;-60
2022/03/25 04:48:15;;;;;;;94.90;53.60;;;;;;;-1.67;63.01;100538.97;431346;1270;142818;-61
2022/03/25 04:58:22;;;;;;;108.40;54.70;;;;;;;-1.38;63.14;100541.05;431638;1270;143244;-58
2022/03/25 05:08:26;;;;;;;;;;;;;;;-0.85;62.49;100542.40;431243;1270;143968;-57
2022/03/25 05:18:32;;;;;;;96.70;57.00;;;;;;;-0.18;61.97;100548.40;430909;1270;130190;-58
2022/03/25 05:28:38;;;;;;;92.40;58.00;;;;;;;0.28;61.34;100557.80;431262;1270;143593;-59
2022/03/25 05:38:43;;;;;;;89.10;55.20;;;;;;;1.25;61.17;100558.84;431356;1271;142850;-58
2022/03/25 05:48:50;;;;;;;93.90;59.80;;;;;;;6.91;56.94;100557.03;430567;1270;141708;-58
2022/03/25 05:58:56;;;;;;;91.50;66.10;;;;;;;12.86;49.45;100546.35;431689;1270;141461;-59
2022/03/25 06:09:02;;;;;;;107.60;73.20;;;;;;;18.04;42.03;100541.04;431814;1270;142219;-59
2022/03/25 06:19:08;;;;;;;93.10;68.20;;;;;;;22.09;36.17;100539.11;431523;1270;146272;-57
2022/03/25 06:29:14;;;;;;;86.20;65.40;;;;;;;25.56;30.89;100528.60;431924;1270;145922;-58
2022/03/25 06:39:20;;;;;;;72.20;56.50;;;;;;;28.53;27.33;100520.95;432945;1270;141924;-60
2022/03/25 06:49:27;;;;;;;54.20;45.10;;;;;;;31.28;23.74;100524.02;432161;1269;141856;-58
2022/03/25 06:59:34;;;;;;;55.10;41.70;;;;;;;33.71;20.98;100525.82;435423;1269;142348;-58
2022/03/25 07:09:41;;;;;;;61.40;41.20;;;;;;;35.91;18.62;100526.51;430966;1270;142703;-58
2022/03/25 07:19:47;;;;;;;47.60;41.40;;;;;;;37.09;16.91;100527.70;431966;1270;142562;-59
2022/03/25 07:29:53;;;;;;;36.80;32.90;;;;;;;38.04;15.57;100529.13;431875;1269;143408;-61
2022/03/25 07:39:58;;;;;;;37.40;29.40;;;;;;;39.23;14.51;100539.35;431124;1268;141650;-59
2022/03/25 07:50:05;;;;;;;50.30;30.80;;;;;;;40.42;13.54;100542.58;430626;1270;147088;-58
2022/03/25 08:00:13;;;;;;;27.50;23.20;;;;;;;40.82;12.59;100544.17;432374;1270;141425;-58
2022/03/25 08:10:21;;;;;;;28.10;22.40;;;;;;;42.04;11.89;100547.02;432278;1269;141907;-58
2022/03/25 08:20:29;;;;;;;18.60;16.80;;;;;;;42.21;10.89;100551.57;431851;1270;143000;-59
2022/03/25 08:30:35;;;;;;;16.90;15.30;;;;;;;41.44;10.59;100549.61;430929;1269;143450;-56
2022/03/25 08:40:42;;;;;;;14.10;12.70;;;;;;;42.07;10.12;100547.55;431740;1270;147171;-60
2022/03/25 08:51:08;;;;;;;22.80;13.90;;;;;;;41.24;9.69;100545.58;431499;1270;141915;-58
2022/03/25 09:01:14;;;;;;;16.10;14.50;;;;;;;37.06;10.21;100535.81;431943;1269;141089;-60
2022/03/25 09:11:21;;;;;;;16.10;14.20;;;;;;;28.55;12.40;100530.83;430425;1270;142365;-60
2022/03/25 09:21:28;;;;;;;15.60;12.40;;;;;;;23.05;15.12;100544.27;431168;1270;147568;-58
2022/03/25 09:31:32;;;;;;;;;;;;;;;20.52;16.70;100546.33;432581;1270;141923;-61
2022/03/25 09:41:49;;;;;;;27.20;13.30;;;;;;;18.68;17.96;100550.59;431030;1270;128345;-61
2022/03/25 09:51:55;;;;;;;21.10;13.20;;;;;;;17.38;19.49;100549.88;430099;1270;142061;-61
2022/03/25 10:02:06;;;;;;;23.40;14.60;;;;;;;16.54;20.55;100546.48;431981;1267;141976;-61
2022/03/25 10:12:26;;;;;;;13.90;9.70;;;;;;;15.98;21.59;100543.28;431107;1269;141694;-62
2022/03/25 10:22:32;;;;;;;12.60;10.10;;;;;;;16.22;21.87;100551.12;431409;1270;142652;-61
2022/03/25 10:32:41;;;;;;;14.50;7.50;;;;;;;16.12;22.01;100544.20;432267;1270;147375;-61
2022/03/25 10:43:07;;;;;;;10.50;7.80;;;;;;;15.84;22.59;100543.34;430744;1270;141962;-60
2022/03/25 10:53:14;;;;;;;18.20;11.60;;;;;;;15.41;23.44;100545.63;431244;1270;141232;-59
2022/03/25 11:03:21;;;;;;;20.70;12.00;;;;;;;15.28;23.83;100537.52;430475;1270;163806;-59
2022/03/25 11:13:28;;;;;;;30.10;16.90;;;;;;;15.03;24.26;100532.85;431396;1270;142226;-62
2022/03/25 11:23:40;;;;;;;15.90;11.80;;;;;;;15.15;24.56;100524.43;431573;1270;141455;-60
2022/03/25 11:34:09;;;;;;;19.40;15.10;;;;;;;15.31;25.04;100516.50;432096;1269;142831;-61
2022/03/25 11:44:25;;;;;;;19.90;14.80;;;;;;;15.29;24.97;100506.71;432029;1270;141855;-60
2022/03/25 11:54:40;;;;;;;31.00;14.50;;;;;;;15.17;25.17;100501.92;431171;1270;145350;-59
2022/03/25 12:04:46;;;;;;;17.20;12.90;;;;;;;15.07;25.27;100495.19;431927;1270;201543;-61
2022/03/25 12:15:13;;;;;;;16.70;11.10;;;;;;;15.16;25.55;100489.79;431734;1270;141856;-60
2022/03/25 12:25:23;;;;;;;17.20;11.30;;;;;;;15.18;25.69;100484.73;431128;1270;141755;-61
2022/03/25 12:35:32;;;;;;;14.90;11.30;;;;;;;15.14;25.83;100472.16;439320;1270;143386;-62
2022/03/25 12:45:40;;;;;;;41.50;14.00;;;;;;;15.11;26.06;100460.73;444478;1270;143134;-59
2022/03/25 12:55:46;;;;;;;23.00;12.80;;;;;;;15.11;26.14;100451.34;437560;1269;142616;-59
2022/03/25 13:05:52;;;;;;;20.70;14.30;;;;;;;15.22;26.33;100445.62;443533;1267;142567;-60
2022/03/25 13:16:03;;;;;;;22.60;14.40;;;;;;;15.24;26.49;100433.70;432847;1270;142013;-61
2022/03/25 13:26:10;;;;;;;19.70;13.70;;;;;;;15.20;26.72;100419.17;431173;1270;142076;-59
2022/03/25 13:36:24;;;;;;;18.20;13.80;;;;;;;14.98;27.11;100416.50;433790;1269;141299;-60
2022/03/25 13:46:30;;;;;;;28.30;13.20;;;;;;;15.00;27.15;100415.77;432552;1270;142480;-60
2022/03/25 13:56:39;;;;;;;16.70;11.70;;;;;;;15.00;27.30;100410.84;433523;1270;142110;-58
2022/03/25 14:06:48;;;;;;;17.80;13.60;;;;;;;14.93;27.21;100404.66;432314;1270;142426;-59
2022/03/25 14:17:12;;;;;;;22.70;13.10;;;;;;;14.78;27.22;100400.19;431987;1270;142447;-58
2022/03/25 14:27:18;;;;;;;19.10;10.30;;;;;;;14.66;27.13;100396.91;432446;1268;142109;-58
2022/03/25 14:37:26;;;;;;;15.30;10.30;;;;;;;14.69;26.95;100383.15;433294;1270;142036;-58
2022/03/25 14:47:32;;;;;;;16.80;9.20;;;;;;;14.57;26.87;100373.38;431033;1270;142231;-59
2022/03/25 14:57:38;;;;;;;14.50;9.00;;;;;;;14.47;26.70;100368.42;429739;1270;142055;-60
2022/03/25 15:07:44;;;;;;;15.80;8.60;;;;;;;14.40;26.69;100374.17;432067;1270;146755;-60
2022/03/25 15:17:50;;;;;;;17.00;9.60;;;;;;;14.46;26.89;100367.79;431871;1270;141337;-61
2022/03/25 15:27:56;;;;;;;13.10;8.20;;;;;;;14.93;26.31;100358.81;429925;1270;142763;-57
2022/03/25 15:38:02;;;;;;;13.60;9.20;;;;;;;14.25;25.81;100362.50;432482;1270;141531;-54
2022/03/25 15:48:09;;;;;;;13.40;8.90;;;;;;;13.80;25.55;100369.34;431847;1270;141721;-57
2022/03/25 15:58:15;;;;;;;11.50;7.60;;;;;;;13.49;25.39;100376.17;430913;1270;142746;-58
2022/03/25 16:08:23;;;;;;;14.70;8.60;;;;;;;13.17;25.17;100369.34;430996;1270;141312;-59
2022/03/25 16:18:28;;;;;;;12.80;8.50;;;;;;;12.95;25.29;100374.63;432818;1270;143526;-58
2022/03/25 16:28:35;;;;;;;15.10;11.00;;;;;;;12.69;25.65;100373.14;432447;1269;141569;-57
2022/03/25 16:38:41;;;;;;;19.30;10.70;;;;;;;12.40;26.09;100368.04;432508;1270;141868;-58
2022/03/25 16:48:47;;;;;;;16.80;9.70;;;;;;;12.02;26.67;100365.29;430334;1270;142470;-59
2022/03/25 16:58:53;;;;;;;18.70;9.70;;;;;;;11.67;27.46;100369.50;432063;1269;141289;-59
2022/03/25 17:08:59;;;;;;;19.70;10.20;;;;;;;11.36;28.25;100379.29;431269;1270;142522;-59
2022/03/25 17:19:05;;;;;;;30.00;12.50;;;;;;;10.90;29.03;100385.39;431485;1270;145422;-58
2022/03/25 17:29:12;;;;;;;43.50;13.70;;;;;;;10.45;30.24;100391.02;431596;1271;142296;-58
2022/03/25 17:39:18;;;;;;;20.60;11.50;;;;;;;10.05;31.52;100395.09;432612;1271;141726;-55
2022/03/25 17:49:24;;;;;;;30.30;14.20;;;;;;;9.66;32.77;100411.08;431619;1268;142608;-60
2022/03/25 17:59:30;;;;;;;25.80;13.50;;;;;;;9.33;33.95;100413.14;432973;1269;142116;-61
2022/03/25 18:09:36;;;;;;;29.40;17.90;;;;;;;9.00;34.80;100415.30;432937;1271;143608;-59
2022/03/25 18:19:42;;;;;;;34.40;19.60;;;;;;;8.71;35.84;100418.31;432666;1271;141318;-59
2022/03/25 18:29:48;;;;;;;50.60;24.10;;;;;;;8.42;36.40;100421.21;433092;1271;141100;-59
2022/03/25 18:39:54;;;;;;;44.30;21.00;;;;;;;8.12;37.12;100430.30;431822;1270;141186;-59
2022/03/25 18:50:00;;;;;;;124.30;61.30;;;;;;;7.79;37.68;100433.83;432553;1271;141212;-59
2022/03/25 19:00:08;;;;;;;83.50;45.90;;;;;;;7.46;38.31;100437.02;430911;1271;140919;-58
2022/03/25 19:10:14;;;;;;;83.00;47.00;;;;;;;7.15;39.41;100437.25;432530;1269;143953;-59
2022/03/25 19:20:20;;;;;;;66.70;38.50;;;;;;;6.84;40.11;100443.91;433723;1271;142698;-59
2022/03/25 19:30:27;;;;;;;99.50;57.10;;;;;;;6.55;40.73;100446.98;432164;1270;143699;-59
2022/03/25 19:40:33;;;;;;;143.30;60.90;;;;;;;6.28;41.39;100451.15;431516;1271;141200;-58
2022/03/25 19:50:39;;;;;;;127.10;68.30;;;;;;;6.01;42.06;100453.91;432433;1270;146699;-59
2022/03/25 20:00:46;;;;;;;128.70;66.80;;;;;;;5.73;42.72;100451.25;431108;1271;142944;-57
2022/03/25 20:10:52;;;;;;;108.10;59.80;;;;;;;5.47;43.66;100461.56;432724;1270;143198;-57
2022/03/25 20:20:59;;;;;;;105.00;60.10;;;;;;;5.28;44.24;100461.41;431416;1270;141245;-60
2022/03/25 20:31:08;;;;;;;107.20;65.60;;;;;;;5.08;44.75;100469.06;432656;1270;142352;-56
2022/03/25 20:41:14;;;;;;;114.80;65.70;;;;;;;4.91;44.99;100470.75;432233;1270;141656;-60
2022/03/25 20:51:20;;;;;;;118.20;74.80;;;;;;;4.71;45.55;100468.14;430584;1271;142009;-68
2022/03/25 21:01:26;;;;;;;121.60;79.20;;;;;;;4.47;46.45;100460.75;433166;1271;142196;-68
2022/03/25 21:11:32;;;;;;;131.50;78.10;;;;;;;4.21;46.97;100452.34;431601;1270;194373;-69
2022/03/25 21:21:39;;;;;;;119.60;71.00;;;;;;;3.97;47.76;100441.98;430992;1270;141024;-68
2022/03/25 21:31:45;;;;;;;126.90;74.40;;;;;;;3.77;48.61;100436.55;432757;1270;140697;-69
2022/03/25 21:41:51;;;;;;;119.20;72.20;;;;;;;3.54;49.19;100436.85;433051;1270;147328;-69
2022/03/25 21:51:57;;;;;;;108.90;66.30;;;;;;;3.37;49.75;100438.95;430227;1270;141707;-67
2022/03/25 22:02:04;;;;;;;107.50;65.50;;;;;;;3.21;50.14;100439.61;431304;1270;143543;-70
2022/03/25 22:12:12;;;;;;;104.90;64.00;;;;;;;3.06;50.69;100440.58;431963;1270;141719;-68
2022/03/25 22:22:19;;;;;;;100.00;63.50;;;;;;;2.94;51.28;100435.80;431493;1270;142524;-69
2022/03/25 22:32:25;;;;;;;100.00;59.30;;;;;;;2.83;51.78;100425.63;431908;1270;141631;-69
2022/03/25 22:42:31;;;;;;;93.90;59.00;;;;;;;2.70;52.11;100426.38;431543;1271;142270;-67
2022/03/25 22:52:38;;;;;;;104.20;58.80;;;;;;;2.56;52.61;100426.98;431957;1270;143703;-68
2022/03/25 23:02:44;;;;;;;96.40;53.70;;;;;;;2.46;53.04;100422.65;431707;1270;145679;-70
2022/03/25 23:12:50;;;;;;;90.90;54.80;;;;;;;2.37;53.57;100417.45;431408;1270;141870;-68
2022/03/25 23:22:56;;;;;;;91.60;54.30;;;;;;;2.31;54.23;100416.33;431994;1270;141400;-67
2022/03/25 23:33:03;;;;;;;83.90;51.80;;;;;;;2.31;54.78;100416.16;435013;1270;143171;-65
2022/03/25 23:43:09;;;;;;;80.60;52.80;;;;;;;2.31;55.18;100415.99;431673;1270;141183;-63
2022/03/25 23:53:16;;;;;;;76.90;49.40;;;;;;;2.22;55.44;100419.94;432836;1270;141831;-64
